sensor_id;sensor_type;location;lat;lon;timestamp;P1;durP1;ratioP1;P2;durP2;ratioP2
58689;SDS011;44470;53.206;-6.106;2022-11-15T00:00:11;1.55;;;1.00;;
58689;SDS011;44470;53.206;-6.106;2022-11-15T00:02:55;2.92;;;1.10;;
58689;SDS011;44470;53.206;-6.106;2022-11-15T00:05:39;1.58;;;0.88;;
58689;SDS011;44470;53.206;-6.106;2022-11-15T00:08:23;1.90;;;1.30;;
58689;SDS011;44470;53.206;-6.106;2022-11-15T00:11:08;2.28;;;1.23;;
58689;SDS011;44470;53.206;-6.106;2022-11-15T00:13:57;0.82;;;0.82;;
58689;SDS011;44470;53.206;-6.106;2022-11-15T00:16:41;2.17;;;1.05;;
58689;SDS011;44470;53.206;-6.106;2022-11-15T00:19:25;3.83;;;1.15;;
58689;SDS011;44470;53.206;-6.106;2022-11-15T00:22:09;1.65;;;1.10;;
58689;SDS011;44470;53.206;-6.106;2022-11-15T00:24:53;1.85;;;0.90;;
58689;SDS011;44470;53.206;-6.106;2022-11-15T00:27:37;2.63;;;0.88;;
58689;SDS011;44470;53.206;-6.106;2022-11-15T00:30:21;1.52;;;0.90;;
58689;SDS011;44470;53.206;-6.106;2022-11-15T00:33:05;2.75;;;0.77;;
58689;SDS011;44470;53.206;-6.106;2022-11-15T00:35:50;2.10;;;0.98;;
58689;SDS011;44470;53.206;-6.106;2022-11-15T00:38:34;1.42;;;0.90;;
58689;SDS011;44470;53.206;-6.106;2022-11-15T00:41:19;2.58;;;1.10;;
58689;SDS011;44470;53.206;-6.106;2022-11-15T00:44:03;1.35;;;0.63;;
58689;SDS011;44470;53.206;-6.106;2022-11-15T00:46:47;1.85;;;0.75;;
58689;SDS011;44470;53.206;-6.106;2022-11-15T00:49:31;1.60;;;0.90;;
58689;SDS011;44470;53.206;-6.106;2022-11-15T00:52:15;1.55;;;0.88;;
58689;SDS011;44470;53.206;-6.106;2022-11-15T00:54:59;1.17;;;0.90;;
58689;SDS011;44470;53.206;-6.106;2022-11-15T00:57:43;1.23;;;0.90;;
58689;SDS011;44470;53.206;-6.106;2022-11-15T01:00:27;1.30;;;0.98;;
58689;SDS011;44470;53.206;-6.106;2022-11-15T01:03:12;1.40;;;1.08;;
58689;SDS011;44470;53.206;-6.106;2022-11-15T01:05:58;1.40;;;1.00;;
58689;SDS011;44470;53.206;-6.106;2022-11-15T01:08:42;2.17;;;0.90;;
58689;SDS011;44470;53.206;-6.106;2022-11-15T01:11:26;1.42;;;0.80;;
58689;SDS011;44470;53.206;-6.106;2022-11-15T01:14:10;1.23;;;0.90;;
58689;SDS011;44470;53.206;-6.106;2022-11-15T01:16:56;1.63;;;0.65;;
58689;SDS011;44470;53.206;-6.106;2022-11-15T01:19:40;1.65;;;0.80;;
58689;SDS011;44470;53.206;-6.106;2022-11-15T01:22:24;1.98;;;0.55;;
58689;SDS011;44470;53.206;-6.106;2022-11-15T01:25:08;0.50;;;0.50;;
58689;SDS011;44470;53.206;-6.106;2022-11-15T01:27:51;1.52;;;0.93;;
58689;SDS011;44470;53.206;-6.106;2022-11-15T01:30:36;1.42;;;0.60;;
58689;SDS011;44470;53.206;-6.106;2022-11-15T01:33:20;1.45;;;1.05;;
58689;SDS011;44470;53.206;-6.106;2022-11-15T01:36:04;1.75;;;1.05;;
58689;SDS011;44470;53.206;-6.106;2022-11-15T01:38:53;2.42;;;0.80;;
58689;SDS011;44470;53.206;-6.106;2022-11-15T01:41:38;1.73;;;0.70;;
58689;SDS011;44470;53.206;-6.106;2022-11-15T01:44:42;3.35;;;0.80;;
58689;SDS011;44470;53.206;-6.106;2022-11-15T01:47:37;0.95;;;0.57;;
58689;SDS011;44470;53.206;-6.106;2022-11-15T01:50:28;1.42;;;0.50;;
58689;SDS011;44470;53.206;-6.106;2022-11-15T01:53:15;2.28;;;0.95;;
58689;SDS011;44470;53.206;-6.106;2022-11-15T01:56:05;0.70;;;0.50;;
58689;SDS011;44470;53.206;-6.106;2022-11-15T02:01:40;2.03;;;0.98;;
58689;SDS011;44470;53.206;-6.106;2022-11-15T02:04:35;1.45;;;0.75;;
58689;SDS011;44470;53.206;-6.106;2022-11-15T02:07:23;1.57;;;0.67;;
58689;SDS011;44470;53.206;-6.106;2022-11-15T02:10:09;0.68;;;0.50;;
58689;SDS011;44470;53.206;-6.106;2022-11-15T02:12:55;2.97;;;0.75;;
58689;SDS011;44470;53.206;-6.106;2022-11-15T02:15:45;2.05;;;0.77;;
58689;SDS011;44470;53.206;-6.106;2022-11-15T02:28:32;1.73;;;0.68;;
58689;SDS011;44470;53.206;-6.106;2022-11-15T02:35:01;1.27;;;0.57;;
58689;SDS011;44470;53.206;-6.106;2022-11-15T02:41:09;2.42;;;0.95;;
58689;SDS011;44470;53.206;-6.106;2022-11-15T02:44:01;0.93;;;0.47;;
58689;SDS011;44470;53.206;-6.106;2022-11-15T02:47:00;2.08;;;0.45;;
58689;SDS011;44470;53.206;-6.106;2022-11-15T02:49:58;0.35;;;0.30;;
58689;SDS011;44470;53.206;-6.106;2022-11-15T02:52:45;0.68;;;0.30;;
58689;SDS011;44470;53.206;-6.106;2022-11-15T02:55:32;1.02;;;0.30;;
58689;SDS011;44470;53.206;-6.106;2022-11-15T03:13:57;1.52;;;0.73;;
58689;SDS011;44470;53.206;-6.106;2022-11-15T03:20:20;0.40;;;0.40;;
58689;SDS011;44470;53.206;-6.106;2022-11-15T03:23:05;0.50;;;0.40;;
58689;SDS011;44470;53.206;-6.106;2022-11-15T03:25:51;0.90;;;0.45;;
58689;SDS011;44470;53.206;-6.106;2022-11-15T03:28:54;0.73;;;0.50;;
58689;SDS011;44470;53.206;-6.106;2022-11-15T03:31:53;0.45;;;0.40;;
58689;SDS011;44470;53.206;-6.106;2022-11-15T03:34:44;0.60;;;0.40;;
58689;SDS011;44470;53.206;-6.106;2022-11-15T03:37:57;1.00;;;0.40;;
58689;SDS011;44470;53.206;-6.106;2022-11-15T03:40:52;0.65;;;0.35;;
58689;SDS011;44470;53.206;-6.106;2022-11-15T03:43:53;0.95;;;0.50;;
58689;SDS011;44470;53.206;-6.106;2022-11-15T03:46:47;0.88;;;0.50;;
58689;SDS011;44470;53.206;-6.106;2022-11-15T03:49:59;0.73;;;0.45;;
58689;SDS011;44470;53.206;-6.106;2022-11-15T03:52:48;0.80;;;0.32;;
58689;SDS011;44470;53.206;-6.106;2022-11-15T03:55:33;0.88;;;0.32;;
58689;SDS011;44470;53.206;-6.106;2022-11-15T03:58:17;1.08;;;0.50;;
58689;SDS011;44470;53.206;-6.106;2022-11-15T04:01:01;0.80;;;0.20;;
58689;SDS011;44470;53.206;-6.106;2022-11-15T04:03:45;0.55;;;0.45;;
58689;SDS011;44470;53.206;-6.106;2022-11-15T04:06:29;0.40;;;0.40;;
58689;SDS011;44470;53.206;-6.106;2022-11-15T04:09:13;0.90;;;0.50;;
58689;SDS011;44470;53.206;-6.106;2022-11-15T04:11:57;0.88;;;0.20;;
58689;SDS011;44470;53.206;-6.106;2022-11-15T04:14:41;0.32;;;0.30;;
58689;SDS011;44470;53.206;-6.106;2022-11-15T04:17:49;0.63;;;0.32;;
58689;SDS011;44470;53.206;-6.106;2022-11-15T04:20:34;0.30;;;0.15;;
58689;SDS011;44470;53.206;-6.106;2022-11-15T04:23:56;0.95;;;0.35;;
58689;SDS011;44470;53.206;-6.106;2022-11-15T04:26:49;0.35;;;0.32;;
58689;SDS011;44470;53.206;-6.106;2022-11-15T04:29:33;1.50;;;0.40;;
58689;SDS011;44470;53.206;-6.106;2022-11-15T04:32:20;0.85;;;0.40;;
58689;SDS011;44470;53.206;-6.106;2022-11-15T04:35:04;1.17;;;0.50;;
58689;SDS011;44470;53.206;-6.106;2022-11-15T04:37:48;1.35;;;0.25;;
58689;SDS011;44470;53.206;-6.106;2022-11-15T04:40:32;0.70;;;0.40;;
58689;SDS011;44470;53.206;-6.106;2022-11-15T04:43:17;1.20;;;0.30;;
58689;SDS011;44470;53.206;-6.106;2022-11-15T04:46:01;0.80;;;0.30;;
58689;SDS011;44470;53.206;-6.106;2022-11-15T04:48:45;1.38;;;0.40;;
58689;SDS011;44470;53.206;-6.106;2022-11-15T04:51:29;1.23;;;0.32;;
58689;SDS011;44470;53.206;-6.106;2022-11-15T04:54:13;1.40;;;0.50;;
58689;SDS011;44470;53.206;-6.106;2022-11-15T04:56:57;1.42;;;0.50;;
58689;SDS011;44470;53.206;-6.106;2022-11-15T04:59:41;1.27;;;0.50;;
58689;SDS011;44470;53.206;-6.106;2022-11-15T05:02:25;2.13;;;0.50;;
58689;SDS011;44470;53.206;-6.106;2022-11-15T05:05:29;0.65;;;0.40;;
58689;SDS011;44470;53.206;-6.106;2022-11-15T05:08:13;1.30;;;0.40;;
58689;SDS011;44470;53.206;-6.106;2022-11-15T05:10:57;0.65;;;0.50;;
58689;SDS011;44470;53.206;-6.106;2022-11-15T05:13:41;1.20;;;0.47;;
58689;SDS011;44470;53.206;-6.106;2022-11-15T05:16:25;2.25;;;0.75;;
58689;SDS011;44470;53.206;-6.106;2022-11-15T05:19:09;1.90;;;0.63;;
58689;SDS011;44470;53.206;-6.106;2022-11-15T05:21:53;1.55;;;0.60;;
58689;SDS011;44470;53.206;-6.106;2022-11-15T05:24:37;2.40;;;0.80;;
58689;SDS011;44470;53.206;-6.106;2022-11-15T05:27:20;2.80;;;0.93;;
58689;SDS011;44470;53.206;-6.106;2022-11-15T05:30:04;1.42;;;0.82;;
58689;SDS011;44470;53.206;-6.106;2022-11-15T05:32:49;1.00;;;0.60;;
58689;SDS011;44470;53.206;-6.106;2022-11-15T05:35:38;1.77;;;0.73;;
58689;SDS011;44470;53.206;-6.106;2022-11-15T05:38:25;1.52;;;0.38;;
58689;SDS011;44470;53.206;-6.106;2022-11-15T05:41:09;2.05;;;0.73;;
58689;SDS011;44470;53.206;-6.106;2022-11-15T05:43:54;1.42;;;0.70;;
58689;SDS011;44470;53.206;-6.106;2022-11-15T05:46:39;1.60;;;0.60;;
58689;SDS011;44470;53.206;-6.106;2022-11-15T05:49:26;1.83;;;0.57;;
58689;SDS011;44470;53.206;-6.106;2022-11-15T05:52:16;1.52;;;0.50;;
58689;SDS011;44470;53.206;-6.106;2022-11-15T05:55:03;2.78;;;1.13;;
58689;SDS011;44470;53.206;-6.106;2022-11-15T05:57:49;1.48;;;0.65;;
58689;SDS011;44470;53.206;-6.106;2022-11-15T06:00:33;2.15;;;0.90;;
58689;SDS011;44470;53.206;-6.106;2022-11-15T06:03:17;2.10;;;0.80;;
58689;SDS011;44470;53.206;-6.106;2022-11-15T06:06:01;2.78;;;1.00;;
58689;SDS011;44470;53.206;-6.106;2022-11-15T06:08:45;2.35;;;0.90;;
58689;SDS011;44470;53.206;-6.106;2022-11-15T06:11:31;1.23;;;0.73;;
58689;SDS011;44470;53.206;-6.106;2022-11-15T06:14:15;1.20;;;0.52;;
58689;SDS011;44470;53.206;-6.106;2022-11-15T06:16:59;1.90;;;0.88;;
58689;SDS011;44470;53.206;-6.106;2022-11-15T06:19:43;1.45;;;0.77;;
58689;SDS011;44470;53.206;-6.106;2022-11-15T06:22:27;1.83;;;0.47;;
58689;SDS011;44470;53.206;-6.106;2022-11-15T06:25:11;1.33;;;0.80;;
58689;SDS011;44470;53.206;-6.106;2022-11-15T06:27:55;1.48;;;0.50;;
58689;SDS011;44470;53.206;-6.106;2022-11-15T06:30:41;1.38;;;0.70;;
58689;SDS011;44470;53.206;-6.106;2022-11-15T06:33:25;2.50;;;0.93;;
58689;SDS011;44470;53.206;-6.106;2022-11-15T06:36:09;1.80;;;0.52;;
58689;SDS011;44470;53.206;-6.106;2022-11-15T06:38:57;1.58;;;0.70;;
58689;SDS011;44470;53.206;-6.106;2022-11-15T06:41:41;2.05;;;1.00;;
58689;SDS011;44470;53.206;-6.106;2022-11-15T06:44:25;1.17;;;0.68;;
58689;SDS011;44470;53.206;-6.106;2022-11-15T06:47:09;1.10;;;0.60;;
58689;SDS011;44470;53.206;-6.106;2022-11-15T06:49:53;1.30;;;0.77;;
58689;SDS011;44470;53.206;-6.106;2022-11-15T06:52:37;1.85;;;0.90;;
58689;SDS011;44470;53.206;-6.106;2022-11-15T06:55:21;1.35;;;0.70;;
58689;SDS011;44470;53.206;-6.106;2022-11-15T06:58:05;1.92;;;0.60;;
58689;SDS011;44470;53.206;-6.106;2022-11-15T07:00:49;2.30;;;0.90;;
58689;SDS011;44470;53.206;-6.106;2022-11-15T07:03:36;1.08;;;0.65;;
58689;SDS011;44470;53.206;-6.106;2022-11-15T07:06:24;1.15;;;0.75;;
58689;SDS011;44470;53.206;-6.106;2022-11-15T07:09:08;0.85;;;0.50;;
58689;SDS011;44470;53.206;-6.106;2022-11-15T07:11:52;1.05;;;0.90;;
58689;SDS011;44470;53.206;-6.106;2022-11-15T07:14:36;3.38;;;0.90;;
58689;SDS011;44470;53.206;-6.106;2022-11-15T07:17:20;2.80;;;0.93;;
58689;SDS011;44470;53.206;-6.106;2022-11-15T07:20:04;0.77;;;0.60;;
58689;SDS011;44470;53.206;-6.106;2022-11-15T07:22:48;0.77;;;0.47;;
58689;SDS011;44470;53.206;-6.106;2022-11-15T07:25:32;1.63;;;0.68;;
58689;SDS011;44470;53.206;-6.106;2022-11-15T07:28:17;1.65;;;0.82;;
58689;SDS011;44470;53.206;-6.106;2022-11-15T07:31:05;0.93;;;0.70;;
58689;SDS011;44470;53.206;-6.106;2022-11-15T07:33:52;2.17;;;0.93;;
58689;SDS011;44470;53.206;-6.106;2022-11-15T07:36:36;1.85;;;0.80;;
58689;SDS011;44470;53.206;-6.106;2022-11-15T07:39:20;2.35;;;0.90;;
58689;SDS011;44470;53.206;-6.106;2022-11-15T07:42:04;1.77;;;0.90;;
58689;SDS011;44470;53.206;-6.106;2022-11-15T07:45:07;1.98;;;0.85;;
58689;SDS011;44470;53.206;-6.106;2022-11-15T07:47:51;3.25;;;1.10;;
58689;SDS011;44470;53.206;-6.106;2022-11-15T07:50:35;1.63;;;0.85;;
58689;SDS011;44470;53.206;-6.106;2022-11-15T07:53:19;1.75;;;0.73;;
58689;SDS011;44470;53.206;-6.106;2022-11-15T07:56:05;1.35;;;0.98;;
58689;SDS011;44470;53.206;-6.106;2022-11-15T07:58:51;1.83;;;0.60;;
58689;SDS011;44470;53.206;-6.106;2022-11-15T08:01:34;2.10;;;0.73;;
58689;SDS011;44470;53.206;-6.106;2022-11-15T08:04:18;1.83;;;0.70;;
58689;SDS011;44470;53.206;-6.106;2022-11-15T08:07:02;1.20;;;0.70;;
58689;SDS011;44470;53.206;-6.106;2022-11-15T08:09:46;2.75;;;1.10;;
58689;SDS011;44470;53.206;-6.106;2022-11-15T08:12:30;1.20;;;0.60;;
58689;SDS011;44470;53.206;-6.106;2022-11-15T08:15:15;1.13;;;0.75;;
58689;SDS011;44470;53.206;-6.106;2022-11-15T08:18:00;2.13;;;0.93;;
58689;SDS011;44470;53.206;-6.106;2022-11-15T08:20:45;1.85;;;0.70;;
58689;SDS011;44470;53.206;-6.106;2022-11-15T08:23:29;1.50;;;0.85;;
58689;SDS011;44470;53.206;-6.106;2022-11-15T08:26:14;1.65;;;0.77;;
58689;SDS011;44470;53.206;-6.106;2022-11-15T08:28:58;2.28;;;0.80;;
58689;SDS011;44470;53.206;-6.106;2022-11-15T08:31:42;1.10;;;0.73;;
58689;SDS011;44470;53.206;-6.106;2022-11-15T08:34:26;1.27;;;0.50;;
58689;SDS011;44470;53.206;-6.106;2022-11-15T08:37:10;1.63;;;0.77;;
58689;SDS011;44470;53.206;-6.106;2022-11-15T08:39:54;1.80;;;0.88;;
58689;SDS011;44470;53.206;-6.106;2022-11-15T08:42:38;2.03;;;0.68;;
58689;SDS011;44470;53.206;-6.106;2022-11-15T08:45:22;0.95;;;0.55;;
58689;SDS011;44470;53.206;-6.106;2022-11-15T08:48:06;3.38;;;1.17;;
58689;SDS011;44470;53.206;-6.106;2022-11-15T08:50:53;1.27;;;0.70;;
58689;SDS011;44470;53.206;-6.106;2022-11-15T08:53:38;2.75;;;1.20;;
58689;SDS011;44470;53.206;-6.106;2022-11-15T08:56:23;3.63;;;0.93;;
58689;SDS011;44470;53.206;-6.106;2022-11-15T08:59:07;1.25;;;0.85;;
58689;SDS011;44470;53.206;-6.106;2022-11-15T09:01:51;1.27;;;0.75;;
58689;SDS011;44470;53.206;-6.106;2022-11-15T09:04:35;1.52;;;0.82;;
58689;SDS011;44470;53.206;-6.106;2022-11-15T09:07:19;1.58;;;0.68;;
58689;SDS011;44470;53.206;-6.106;2022-11-15T09:10:03;2.47;;;0.80;;
58689;SDS011;44470;53.206;-6.106;2022-11-15T09:12:48;1.77;;;0.70;;
58689;SDS011;44470;53.206;-6.106;2022-11-15T09:15:32;2.63;;;0.70;;
58689;SDS011;44470;53.206;-6.106;2022-11-15T09:18:16;1.23;;;0.93;;
58689;SDS011;44470;53.206;-6.106;2022-11-15T09:21:00;1.40;;;0.85;;
58689;SDS011;44470;53.206;-6.106;2022-11-15T09:23:45;2.20;;;1.08;;
58689;SDS011;44470;53.206;-6.106;2022-11-15T09:26:30;2.63;;;1.00;;
58689;SDS011;44470;53.206;-6.106;2022-11-15T09:29:13;3.30;;;1.00;;
58689;SDS011;44470;53.206;-6.106;2022-11-15T09:31:57;4.22;;;1.13;;
58689;SDS011;44470;53.206;-6.106;2022-11-15T09:34:41;1.23;;;0.70;;
58689;SDS011;44470;53.206;-6.106;2022-11-15T09:37:25;1.85;;;0.60;;
58689;SDS011;44470;53.206;-6.106;2022-11-15T09:40:10;1.55;;;0.75;;
58689;SDS011;44470;53.206;-6.106;2022-11-15T09:43:00;1.17;;;0.80;;
58689;SDS011;44470;53.206;-6.106;2022-11-15T09:49:18;2.17;;;0.90;;
58689;SDS011;44470;53.206;-6.106;2022-11-15T09:51:53;2.85;;;1.02;;
58689;SDS011;44470;53.206;-6.106;2022-11-15T10:05:02;2.22;;;1.30;;
58689;SDS011;44470;53.206;-6.106;2022-11-15T10:07:34;1.63;;;0.77;;
58689;SDS011;44470;53.206;-6.106;2022-11-15T10:12:48;2.10;;;1.00;;
58689;SDS011;44470;53.206;-6.106;2022-11-15T10:15:16;2.40;;;1.05;;
58689;SDS011;44470;53.206;-6.106;2022-11-15T10:18:08;1.20;;;0.75;;
58689;SDS011;44470;53.206;-6.106;2022-11-15T10:23:13;2.80;;;1.35;;
58689;SDS011;44470;53.206;-6.106;2022-11-15T10:25:40;1.60;;;1.00;;
58689;SDS011;44470;53.206;-6.106;2022-11-15T10:28:22;1.98;;;0.88;;
58689;SDS011;44470;53.206;-6.106;2022-11-15T10:30:53;2.40;;;1.15;;
58689;SDS011;44470;53.206;-6.106;2022-11-15T10:33:31;1.33;;;0.80;;
58689;SDS011;44470;53.206;-6.106;2022-11-15T10:41:16;1.58;;;1.02;;
58689;SDS011;44470;53.206;-6.106;2022-11-15T10:43:45;2.58;;;1.25;;
58689;SDS011;44470;53.206;-6.106;2022-11-15T10:46:26;2.42;;;1.38;;
58689;SDS011;44470;53.206;-6.106;2022-11-15T10:48:51;1.38;;;0.95;;
58689;SDS011;44470;53.206;-6.106;2022-11-15T10:51:21;3.05;;;1.17;;
58689;SDS011;44470;53.206;-6.106;2022-11-15T10:53:53;2.53;;;1.17;;
58689;SDS011;44470;53.206;-6.106;2022-11-15T10:56:21;2.75;;;1.05;;
58689;SDS011;44470;53.206;-6.106;2022-11-15T10:58:50;2.88;;;1.20;;
58689;SDS011;44470;53.206;-6.106;2022-11-15T11:01:19;2.42;;;0.98;;
58689;SDS011;44470;53.206;-6.106;2022-11-15T11:06:28;1.60;;;1.00;;
58689;SDS011;44470;53.206;-6.106;2022-11-15T11:11:24;1.40;;;0.70;;
58689;SDS011;44470;53.206;-6.106;2022-11-15T11:14:12;3.05;;;1.10;;
58689;SDS011;44470;53.206;-6.106;2022-11-15T11:16:46;1.05;;;0.80;;
58689;SDS011;44470;53.206;-6.106;2022-11-15T11:47:21;1.73;;;0.93;;
58689;SDS011;44470;53.206;-6.106;2022-11-15T11:50:32;2.20;;;1.08;;
58689;SDS011;44470;53.206;-6.106;2022-11-15T11:55:46;1.60;;;0.70;;
58689;SDS011;44470;53.206;-6.106;2022-11-15T12:00:59;0.95;;;0.77;;
58689;SDS011;44470;53.206;-6.106;2022-11-15T12:03:41;2.83;;;0.82;;
58689;SDS011;44470;53.206;-6.106;2022-11-15T12:06:22;2.05;;;1.20;;
58689;SDS011;44470;53.206;-6.106;2022-11-15T12:09:01;1.10;;;0.60;;
58689;SDS011;44470;53.206;-6.106;2022-11-15T12:11:55;0.93;;;0.60;;
58689;SDS011;44470;53.206;-6.106;2022-11-15T12:17:08;1.20;;;1.02;;
58689;SDS011;44470;53.206;-6.106;2022-11-15T12:22:13;2.67;;;0.98;;
58689;SDS011;44470;53.206;-6.106;2022-11-15T12:25:00;1.55;;;0.90;;
58689;SDS011;44470;53.206;-6.106;2022-11-15T12:30:03;0.95;;;0.75;;
58689;SDS011;44470;53.206;-6.106;2022-11-15T12:32:35;1.52;;;1.15;;
58689;SDS011;44470;53.206;-6.106;2022-11-15T12:35:03;1.05;;;0.70;;
58689;SDS011;44470;53.206;-6.106;2022-11-15T12:42:42;2.40;;;0.95;;
58689;SDS011;44470;53.206;-6.106;2022-11-15T12:45:26;2.00;;;0.82;;
58689;SDS011;44470;53.206;-6.106;2022-11-15T12:48:44;0.93;;;0.88;;
58689;SDS011;44470;53.206;-6.106;2022-11-15T12:56:08;1.45;;;0.85;;
58689;SDS011;44470;53.206;-6.106;2022-11-15T13:06:47;2.00;;;0.80;;
58689;SDS011;44470;53.206;-6.106;2022-11-15T13:10:07;2.53;;;1.10;;
58689;SDS011;44470;53.206;-6.106;2022-11-15T13:12:10;1.92;;;0.93;;
58689;SDS011;44470;53.206;-6.106;2022-11-15T13:14:41;0.85;;;0.75;;
58689;SDS011;44470;53.206;-6.106;2022-11-15T13:28:02;1.85;;;0.90;;
58689;SDS011;44470;53.206;-6.106;2022-11-15T13:30:36;2.40;;;1.00;;
58689;SDS011;44470;53.206;-6.106;2022-11-15T13:33:10;1.30;;;0.77;;
58689;SDS011;44470;53.206;-6.106;2022-11-15T13:35:40;1.40;;;0.80;;
58689;SDS011;44470;53.206;-6.106;2022-11-15T13:38:11;1.33;;;0.75;;
58689;SDS011;44470;53.206;-6.106;2022-11-15T13:40:44;1.38;;;0.75;;
58689;SDS011;44470;53.206;-6.106;2022-11-15T13:46:07;1.00;;;0.93;;
58689;SDS011;44470;53.206;-6.106;2022-11-15T13:48:33;1.92;;;0.95;;
58689;SDS011;44470;53.206;-6.106;2022-11-15T13:50:59;1.48;;;0.80;;
58689;SDS011;44470;53.206;-6.106;2022-11-15T13:53:31;1.30;;;0.80;;
58689;SDS011;44470;53.206;-6.106;2022-11-15T13:55:58;1.83;;;0.95;;
58689;SDS011;44470;53.206;-6.106;2022-11-15T13:58:24;1.73;;;1.00;;
58689;SDS011;44470;53.206;-6.106;2022-11-15T14:00:59;2.50;;;0.88;;
58689;SDS011;44470;53.206;-6.106;2022-11-15T14:03:27;0.93;;;0.63;;
58689;SDS011;44470;53.206;-6.106;2022-11-15T14:06:12;1.73;;;1.00;;
58689;SDS011;44470;53.206;-6.106;2022-11-15T14:14:58;1.40;;;0.80;;
58689;SDS011;44470;53.206;-6.106;2022-11-15T14:19:53;3.35;;;0.90;;
58689;SDS011;44470;53.206;-6.106;2022-11-15T14:22:20;1.83;;;0.93;;
58689;SDS011;44470;53.206;-6.106;2022-11-15T14:25:05;1.02;;;0.80;;
58689;SDS011;44470;53.206;-6.106;2022-11-15T14:27:41;2.40;;;1.00;;
58689;SDS011;44470;53.206;-6.106;2022-11-15T14:30:15;2.00;;;1.20;;
58689;SDS011;44470;53.206;-6.106;2022-11-15T14:32:45;1.85;;;0.68;;
58689;SDS011;44470;53.206;-6.106;2022-11-15T14:35:18;1.55;;;1.10;;
58689;SDS011;44470;53.206;-6.106;2022-11-15T14:40:14;1.30;;;0.70;;
58689;SDS011;44470;53.206;-6.106;2022-11-15T14:42:43;1.95;;;1.05;;
58689;SDS011;44470;53.206;-6.106;2022-11-15T14:45:14;1.77;;;0.93;;
58689;SDS011;44470;53.206;-6.106;2022-11-15T14:47:41;2.10;;;1.15;;
58689;SDS011;44470;53.206;-6.106;2022-11-15T14:50:17;1.60;;;0.85;;
58689;SDS011;44470;53.206;-6.106;2022-11-15T14:52:47;1.70;;;1.10;;
58689;SDS011;44470;53.206;-6.106;2022-11-15T14:55:18;2.35;;;1.27;;
58689;SDS011;44470;53.206;-6.106;2022-11-15T14:57:46;2.28;;;1.23;;
58689;SDS011;44470;53.206;-6.106;2022-11-15T15:00:12;2.55;;;1.15;;
58689;SDS011;44470;53.206;-6.106;2022-11-15T15:02:38;2.33;;;1.10;;
58689;SDS011;44470;53.206;-6.106;2022-11-15T15:05:12;1.75;;;1.08;;
58689;SDS011;44470;53.206;-6.106;2022-11-15T15:07:40;1.20;;;1.02;;
58689;SDS011;44470;53.206;-6.106;2022-11-15T15:10:05;1.25;;;0.80;;
58689;SDS011;44470;53.206;-6.106;2022-11-15T15:12:31;2.20;;;1.17;;
58689;SDS011;44470;53.206;-6.106;2022-11-15T15:14:56;1.17;;;0.90;;
58689;SDS011;44470;53.206;-6.106;2022-11-15T15:17:22;1.58;;;1.30;;
58689;SDS011;44470;53.206;-6.106;2022-11-15T15:19:47;1.83;;;1.10;;
58689;SDS011;44470;53.206;-6.106;2022-11-15T15:22:14;1.73;;;0.90;;
58689;SDS011;44470;53.206;-6.106;2022-11-15T15:24:42;2.20;;;0.97;;
58689;SDS011;44470;53.206;-6.106;2022-11-15T15:27:09;1.27;;;1.08;;
58689;SDS011;44470;53.206;-6.106;2022-11-15T15:29:34;2.25;;;1.20;;
58689;SDS011;44470;53.206;-6.106;2022-11-15T15:32:00;2.33;;;1.10;;
58689;SDS011;44470;53.206;-6.106;2022-11-15T15:34:25;1.80;;;0.93;;
58689;SDS011;44470;53.206;-6.106;2022-11-15T15:39:48;1.25;;;1.10;;
58689;SDS011;44470;53.206;-6.106;2022-11-15T15:42:14;1.02;;;0.90;;
58689;SDS011;44470;53.206;-6.106;2022-11-15T15:44:40;1.67;;;1.23;;
58689;SDS011;44470;53.206;-6.106;2022-11-15T15:47:22;2.17;;;1.10;;
58689;SDS011;44470;53.206;-6.106;2022-11-15T15:49:49;1.00;;;0.90;;
58689;SDS011;44470;53.206;-6.106;2022-11-15T15:52:15;1.45;;;1.30;;
58689;SDS011;44470;53.206;-6.106;2022-11-15T15:54:41;1.10;;;1.05;;
58689;SDS011;44470;53.206;-6.106;2022-11-15T15:57:13;2.38;;;1.20;;
58689;SDS011;44470;53.206;-6.106;2022-11-15T15:59:39;2.45;;;1.25;;
58689;SDS011;44470;53.206;-6.106;2022-11-15T16:02:05;1.23;;;1.13;;
58689;SDS011;44470;53.206;-6.106;2022-11-15T16:04:31;1.75;;;1.27;;
58689;SDS011;44470;53.206;-6.106;2022-11-15T16:06:59;2.17;;;1.00;;
58689;SDS011;44470;53.206;-6.106;2022-11-15T16:09:26;2.35;;;1.33;;
58689;SDS011;44470;53.206;-6.106;2022-11-15T16:12:10;1.50;;;1.40;;
58689;SDS011;44470;53.206;-6.106;2022-11-15T16:14:36;2.00;;;1.10;;
58689;SDS011;44470;53.206;-6.106;2022-11-15T16:17:02;1.48;;;1.30;;
58689;SDS011;44470;53.206;-6.106;2022-11-15T16:19:28;2.88;;;1.38;;
58689;SDS011;44470;53.206;-6.106;2022-11-15T16:21:54;2.03;;;1.40;;
58689;SDS011;44470;53.206;-6.106;2022-11-15T16:24:20;3.45;;;1.60;;
58689;SDS011;44470;53.206;-6.106;2022-11-15T16:26:46;2.35;;;1.50;;
58689;SDS011;44470;53.206;-6.106;2022-11-15T16:29:12;1.50;;;1.23;;
58689;SDS011;44470;53.206;-6.106;2022-11-15T16:31:38;1.95;;;1.42;;
58689;SDS011;44470;53.206;-6.106;2022-11-15T16:34:03;2.42;;;1.60;;
58689;SDS011;44470;53.206;-6.106;2022-11-15T16:36:30;2.30;;;1.50;;
58689;SDS011;44470;53.206;-6.106;2022-11-15T16:38:57;1.67;;;1.50;;
58689;SDS011;44470;53.206;-6.106;2022-11-15T16:41:23;1.70;;;1.50;;
58689;SDS011;44470;53.206;-6.106;2022-11-15T16:43:49;2.67;;;1.50;;
58689;SDS011;44470;53.206;-6.106;2022-11-15T16:46:18;1.92;;;1.40;;
58689;SDS011;44470;53.206;-6.106;2022-11-15T16:48:46;1.70;;;1.60;;
58689;SDS011;44470;53.206;-6.106;2022-11-15T16:51:13;2.60;;;1.50;;
58689;SDS011;44470;53.206;-6.106;2022-11-15T16:53:39;1.67;;;1.52;;
58689;SDS011;44470;53.206;-6.106;2022-11-15T16:56:38;1.40;;;1.25;;
58689;SDS011;44470;53.206;-6.106;2022-11-15T16:58:57;1.70;;;1.60;;
58689;SDS011;44470;53.206;-6.106;2022-11-15T17:01:27;1.52;;;1.42;;
58689;SDS011;44470;53.206;-6.106;2022-11-15T17:03:55;1.20;;;1.20;;
58689;SDS011;44470;53.206;-6.106;2022-11-15T17:06:22;2.17;;;1.73;;
58689;SDS011;44470;53.206;-6.106;2022-11-15T17:08:48;2.13;;;1.75;;
58689;SDS011;44470;53.206;-6.106;2022-11-15T17:11:15;2.42;;;1.73;;
58689;SDS011;44470;53.206;-6.106;2022-11-15T17:13:43;2.13;;;1.60;;
58689;SDS011;44470;53.206;-6.106;2022-11-15T17:16:10;1.90;;;1.70;;
58689;SDS011;44470;53.206;-6.106;2022-11-15T17:18:37;2.90;;;1.60;;
58689;SDS011;44470;53.206;-6.106;2022-11-15T17:21:08;2.60;;;1.90;;
58689;SDS011;44470;53.206;-6.106;2022-11-15T17:23:39;1.95;;;1.67;;
58689;SDS011;44470;53.206;-6.106;2022-11-15T17:26:04;2.75;;;1.80;;
58689;SDS011;44470;53.206;-6.106;2022-11-15T17:28:31;1.90;;;1.80;;
58689;SDS011;44470;53.206;-6.106;2022-11-15T17:30:57;3.97;;;1.90;;
58689;SDS011;44470;53.206;-6.106;2022-11-15T17:33:24;2.33;;;1.85;;
58689;SDS011;44470;53.206;-6.106;2022-11-15T17:35:59;2.25;;;2.05;;
58689;SDS011;44470;53.206;-6.106;2022-11-15T17:38:26;3.13;;;2.25;;
58689;SDS011;44470;53.206;-6.106;2022-11-15T17:41:02;2.30;;;2.10;;
58689;SDS011;44470;53.206;-6.106;2022-11-15T17:43:30;3.45;;;2.38;;
58689;SDS011;44470;53.206;-6.106;2022-11-15T17:45:57;2.67;;;2.30;;
58689;SDS011;44470;53.206;-6.106;2022-11-15T17:48:23;2.50;;;2.30;;
58689;SDS011;44470;53.206;-6.106;2022-11-15T17:51:08;2.90;;;2.35;;
58689;SDS011;44470;53.206;-6.106;2022-11-15T17:53:37;2.33;;;2.03;;
58689;SDS011;44470;53.206;-6.106;2022-11-15T17:56:05;3.42;;;2.55;;
58689;SDS011;44470;53.206;-6.106;2022-11-15T17:58:32;3.42;;;2.60;;
58689;SDS011;44470;53.206;-6.106;2022-11-15T18:03:37;3.55;;;2.67;;
58689;SDS011;44470;53.206;-6.106;2022-11-15T18:06:06;3.80;;;2.70;;
58689;SDS011;44470;53.206;-6.106;2022-11-15T18:11:05;3.65;;;2.60;;
58689;SDS011;44470;53.206;-6.106;2022-11-15T18:13:31;3.38;;;2.35;;
58689;SDS011;44470;53.206;-6.106;2022-11-15T18:15:57;4.07;;;2.90;;
58689;SDS011;44470;53.206;-6.106;2022-11-15T18:18:27;3.05;;;2.60;;
58689;SDS011;44470;53.206;-6.106;2022-11-15T18:23:27;3.63;;;2.88;;
58689;SDS011;44470;53.206;-6.106;2022-11-15T18:25:53;3.70;;;3.03;;
58689;SDS011;44470;53.206;-6.106;2022-11-15T18:28:19;3.92;;;2.90;;